sensor_id;sensor_type;location;lat;lon;timestamp;temperature;humidity
12708;DHT22;6418;50.824;4.718;2023-03-30T00:01:37;14.60;99.90
12708;DHT22;6418;50.824;4.718;2023-03-30T00:04:03;14.70;99.90
12708;DHT22;6418;50.824;4.718;2023-03-30T00:06:31;14.60;99.90
12708;DHT22;6418;50.824;4.718;2023-03-30T00:08:58;14.70;99.90
12708;DHT22;6418;50.824;4.718;2023-03-30T00:11:26;14.70;99.90
12708;DHT22;6418;50.824;4.718;2023-03-30T00:13:58;14.70;99.90
12708;DHT22;6418;50.824;4.718;2023-03-30T00:16:25;14.80;99.90
12708;DHT22;6418;50.824;4.718;2023-03-30T00:18:54;14.80;99.90
12708;DHT22;6418;50.824;4.718;2023-03-30T00:21:20;14.80;99.90
12708;DHT22;6418;50.824;4.718;2023-03-30T00:23:47;14.80;99.90
12708;DHT22;6418;50.824;4.718;2023-03-30T00:26:15;14.80;99.90
12708;DHT22;6418;50.824;4.718;2023-03-30T00:28:42;14.80;99.90
12708;DHT22;6418;50.824;4.718;2023-03-30T00:31:09;14.80;99.90
12708;DHT22;6418;50.824;4.718;2023-03-30T00:33:36;14.80;99.90
12708;DHT22;6418;50.824;4.718;2023-03-30T00:36:05;14.80;99.90
12708;DHT22;6418;50.824;4.718;2023-03-30T00:38:33;14.80;99.90
12708;DHT22;6418;50.824;4.718;2023-03-30T00:41:00;14.80;99.90
12708;DHT22;6418;50.824;4.718;2023-03-30T00:43:28;14.80;99.90
12708;DHT22;6418;50.824;4.718;2023-03-30T00:45:55;14.80;99.90
12708;DHT22;6418;50.824;4.718;2023-03-30T00:48:24;14.80;99.90
12708;DHT22;6418;50.824;4.718;2023-03-30T00:50:54;14.80;99.90
12708;DHT22;6418;50.824;4.718;2023-03-30T00:53:28;14.80;99.90
12708;DHT22;6418;50.824;4.718;2023-03-30T00:55:56;14.80;99.90
12708;DHT22;6418;50.824;4.718;2023-03-30T00:58:24;14.80;99.90
12708;DHT22;6418;50.824;4.718;2023-03-30T01:00:51;14.70;99.90
12708;DHT22;6418;50.824;4.718;2023-03-30T01:03:23;14.70;99.90
12708;DHT22;6418;50.824;4.718;2023-03-30T01:05:54;14.70;99.90
12708;DHT22;6418;50.824;4.718;2023-03-30T01:08:23;14.70;99.90
12708;DHT22;6418;50.824;4.718;2023-03-30T01:10:52;14.70;99.90
12708;DHT22;6418;50.824;4.718;2023-03-30T01:13:20;14.70;99.90
12708;DHT22;6418;50.824;4.718;2023-03-30T01:15:56;14.70;99.90
12708;DHT22;6418;50.824;4.718;2023-03-30T01:18:33;14.70;99.90
12708;DHT22;6418;50.824;4.718;2023-03-30T01:21:45;14.70;99.90
12708;DHT22;6418;50.824;4.718;2023-03-30T01:24:49;14.70;99.90
12708;DHT22;6418;50.824;4.718;2023-03-30T01:27:38;14.60;99.90
12708;DHT22;6418;50.824;4.718;2023-03-30T01:30:25;14.60;99.90
12708;DHT22;6418;50.824;4.718;2023-03-30T01:33:13;14.60;99.90
12708;DHT22;6418;50.824;4.718;2023-03-30T01:36:11;14.60;99.90
12708;DHT22;6418;50.824;4.718;2023-03-30T01:39:07;14.60;99.90
12708;DHT22;6418;50.824;4.718;2023-03-30T01:41:44;14.60;99.90
12708;DHT22;6418;50.824;4.718;2023-03-30T01:44:19;14.60;99.90
12708;DHT22;6418;50.824;4.718;2023-03-30T01:46:51;14.60;99.90
12708;DHT22;6418;50.824;4.718;2023-03-30T01:49:24;14.60;99.90
12708;DHT22;6418;50.824;4.718;2023-03-30T01:52:00;14.50;99.90
12708;DHT22;6418;50.824;4.718;2023-03-30T01:54:32;14.50;99.90
12708;DHT22;6418;50.824;4.718;2023-03-30T01:57:03;14.50;99.90
12708;DHT22;6418;50.824;4.718;2023-03-30T01:59:37;14.40;99.90
12708;DHT22;6418;50.824;4.718;2023-03-30T02:02:07;14.50;99.90
12708;DHT22;6418;50.824;4.718;2023-03-30T02:04:38;14.40;99.90
12708;DHT22;6418;50.824;4.718;2023-03-30T02:07:09;14.40;99.90
12708;DHT22;6418;50.824;4.718;2023-03-30T02:09:40;14.30;99.90
12708;DHT22;6418;50.824;4.718;2023-03-30T02:12:09;14.30;99.90
12708;DHT22;6418;50.824;4.718;2023-03-30T02:14:38;14.30;99.90
12708;DHT22;6418;50.824;4.718;2023-03-30T02:17:10;14.20;99.90
12708;DHT22;6418;50.824;4.718;2023-03-30T02:19:39;14.20;99.90
12708;DHT22;6418;50.824;4.718;2023-03-30T02:22:06;14.20;99.90
12708;DHT22;6418;50.824;4.718;2023-03-30T02:24:34;14.10;99.90
12708;DHT22;6418;50.824;4.718;2023-03-30T02:27:03;14.10;99.90
12708;DHT22;6418;50.824;4.718;2023-03-30T02:29:32;14.10;99.90
12708;DHT22;6418;50.824;4.718;2023-03-30T02:31:59;14.00;99.90
12708;DHT22;6418;50.824;4.718;2023-03-30T02:34:40;14.00;99.90
12708;DHT22;6418;50.824;4.718;2023-03-30T02:37:31;14.00;99.90
12708;DHT22;6418;50.824;4.718;2023-03-30T02:40:14;13.90;99.90
12708;DHT22;6418;50.824;4.718;2023-03-30T02:42:55;13.90;99.90
12708;DHT22;6418;50.824;4.718;2023-03-30T02:45:32;14.00;99.90
12708;DHT22;6418;50.824;4.718;2023-03-30T02:48:17;14.00;99.90
12708;DHT22;6418;50.824;4.718;2023-03-30T02:50:53;14.00;99.90
12708;DHT22;6418;50.824;4.718;2023-03-30T02:53:25;14.00;99.90
12708;DHT22;6418;50.824;4.718;2023-03-30T02:55:59;14.10;99.90
12708;DHT22;6418;50.824;4.718;2023-03-30T02:58:35;14.10;99.90
12708;DHT22;6418;50.824;4.718;2023-03-30T03:01:10;14.10;99.90
12708;DHT22;6418;50.824;4.718;2023-03-30T03:03:42;14.10;99.90
12708;DHT22;6418;50.824;4.718;2023-03-30T03:06:12;14.20;99.90
12708;DHT22;6418;50.824;4.718;2023-03-30T03:08:41;14.20;99.90
12708;DHT22;6418;50.824;4.718;2023-03-30T03:11:09;14.30;99.90
12708;DHT22;6418;50.824;4.718;2023-03-30T03:13:38;14.30;99.90
12708;DHT22;6418;50.824;4.718;2023-03-30T03:16:07;14.30;99.90
12708;DHT22;6418;50.824;4.718;2023-03-30T03:18:35;14.30;99.90
12708;DHT22;6418;50.824;4.718;2023-03-30T03:21:04;14.30;99.90
12708;DHT22;6418;50.824;4.718;2023-03-30T03:23:32;14.30;99.90
12708;DHT22;6418;50.824;4.718;2023-03-30T03:25:59;14.30;99.90
12708;DHT22;6418;50.824;4.718;2023-03-30T03:28:26;14.30;99.90
12708;DHT22;6418;50.824;4.718;2023-03-30T03:30:55;14.30;99.90
12708;DHT22;6418;50.824;4.718;2023-03-30T03:33:23;14.30;99.90
12708;DHT22;6418;50.824;4.718;2023-03-30T03:35:50;14.30;99.90
12708;DHT22;6418;50.824;4.718;2023-03-30T03:38:18;14.20;99.90
12708;DHT22;6418;50.824;4.718;2023-03-30T03:40:49;14.20;99.90
12708;DHT22;6418;50.824;4.718;2023-03-30T03:43:16;14.30;99.90
12708;DHT22;6418;50.824;4.718;2023-03-30T03:45:44;14.30;99.90
12708;DHT22;6418;50.824;4.718;2023-03-30T03:48:13;14.30;99.90
12708;DHT22;6418;50.824;4.718;2023-03-30T03:50:40;14.30;99.90
12708;DHT22;6418;50.824;4.718;2023-03-30T03:53:07;14.40;99.90
12708;DHT22;6418;50.824;4.718;2023-03-30T03:55:34;14.30;99.90
12708;DHT22;6418;50.824;4.718;2023-03-30T03:58:01;14.30;99.90
12708;DHT22;6418;50.824;4.718;2023-03-30T04:00:28;14.30;99.90
12708;DHT22;6418;50.824;4.718;2023-03-30T04:02:55;14.30;99.90
12708;DHT22;6418;50.824;4.718;2023-03-30T04:05:24;14.20;99.90
12708;DHT22;6418;50.824;4.718;2023-03-30T04:07:51;14.20;99.90
12708;DHT22;6418;50.824;4.718;2023-03-30T04:10:19;14.20;99.90
12708;DHT22;6418;50.824;4.718;2023-03-30T04:12:46;14.10;99.90
12708;DHT22;6418;50.824;4.718;2023-03-30T04:15:13;14.10;99.90
12708;DHT22;6418;50.824;4.718;2023-03-30T04:17:40;14.10;99.90
12708;DHT22;6418;50.824;4.718;2023-03-30T04:20:10;14.00;99.90
12708;DHT22;6418;50.824;4.718;2023-03-30T04:22:38;14.10;99.90
12708;DHT22;6418;50.824;4.718;2023-03-30T04:25:08;14.10;99.90
12708;DHT22;6418;50.824;4.718;2023-03-30T04:27:39;14.10;99.90
12708;DHT22;6418;50.824;4.718;2023-03-30T04:30:08;14.10;99.90
12708;DHT22;6418;50.824;4.718;2023-03-30T04:32:35;14.10;99.90
12708;DHT22;6418;50.824;4.718;2023-03-30T04:35:03;14.10;99.90
12708;DHT22;6418;50.824;4.718;2023-03-30T04:37:30;14.10;99.90
12708;DHT22;6418;50.824;4.718;2023-03-30T04:40:00;14.10;99.90
12708;DHT22;6418;50.824;4.718;2023-03-30T04:42:31;14.10;99.90
12708;DHT22;6418;50.824;4.718;2023-03-30T04:44:59;14.10;99.90
12708;DHT22;6418;50.824;4.718;2023-03-30T04:47:27;14.10;99.90
12708;DHT22;6418;50.824;4.718;2023-03-30T04:49:54;14.10;99.90
12708;DHT22;6418;50.824;4.718;2023-03-30T04:52:21;14.10;99.90
12708;DHT22;6418;50.824;4.718;2023-03-30T04:54:48;14.10;99.90
12708;DHT22;6418;50.824;4.718;2023-03-30T04:57:16;14.10;99.90
12708;DHT22;6418;50.824;4.718;2023-03-30T04:59:44;14.10;99.90
12708;DHT22;6418;50.824;4.718;2023-03-30T05:02:12;14.10;99.90
12708;DHT22;6418;50.824;4.718;2023-03-30T05:04:39;14.10;99.90
12708;DHT22;6418;50.824;4.718;2023-03-30T05:07:06;14.10;99.90
12708;DHT22;6418;50.824;4.718;2023-03-30T05:09:33;14.10;99.90
12708;DHT22;6418;50.824;4.718;2023-03-30T05:12:00;14.10;99.90
12708;DHT22;6418;50.824;4.718;2023-03-30T05:14:30;14.10;99.90
12708;DHT22;6418;50.824;4.718;2023-03-30T05:16:57;14.10;99.90
12708;DHT22;6418;50.824;4.718;2023-03-30T05:19:24;14.10;99.90
12708;DHT22;6418;50.824;4.718;2023-03-30T05:21:51;14.10;99.90
12708;DHT22;6418;50.824;4.718;2023-03-30T05:24:18;14.10;99.90
12708;DHT22;6418;50.824;4.718;2023-03-30T05:26:45;14.10;99.90
12708;DHT22;6418;50.824;4.718;2023-03-30T05:29:12;14.10;99.90
12708;DHT22;6418;50.824;4.718;2023-03-30T05:31:40;14.00;99.90
12708;DHT22;6418;50.824;4.718;2023-03-30T05:34:07;14.00;99.90
12708;DHT22;6418;50.824;4.718;2023-03-30T05:36:34;13.90;99.90
12708;DHT22;6418;50.824;4.718;2023-03-30T05:39:01;13.80;99.90
12708;DHT22;6418;50.824;4.718;2023-03-30T05:41:29;13.60;99.90
12708;DHT22;6418;50.824;4.718;2023-03-30T05:43:56;13.50;99.90
12708;DHT22;6418;50.824;4.718;2023-03-30T05:46:23;13.50;99.90
12708;DHT22;6418;50.824;4.718;2023-03-30T05:48:52;13.40;99.90
12708;DHT22;6418;50.824;4.718;2023-03-30T05:51:18;13.30;99.90
12708;DHT22;6418;50.824;4.718;2023-03-30T05:53:46;13.20;99.90
12708;DHT22;6418;50.824;4.718;2023-03-30T05:56:13;13.20;99.90
12708;DHT22;6418;50.824;4.718;2023-03-30T05:58:40;13.20;99.90
12708;DHT22;6418;50.824;4.718;2023-03-30T06:01:07;13.10;99.90
12708;DHT22;6418;50.824;4.718;2023-03-30T06:03:35;13.10;99.90
12708;DHT22;6418;50.824;4.718;2023-03-30T06:06:05;13.00;99.90
12708;DHT22;6418;50.824;4.718;2023-03-30T06:08:32;13.00;99.90
12708;DHT22;6418;50.824;4.718;2023-03-30T06:10:59;13.00;99.90
12708;DHT22;6418;50.824;4.718;2023-03-30T06:13:26;12.90;99.90
12708;DHT22;6418;50.824;4.718;2023-03-30T06:15:53;12.90;99.90
12708;DHT22;6418;50.824;4.718;2023-03-30T06:18:20;12.90;99.90
12708;DHT22;6418;50.824;4.718;2023-03-30T06:20:47;12.90;99.90
12708;DHT22;6418;50.824;4.718;2023-03-30T06:23:16;12.80;99.90
12708;DHT22;6418;50.824;4.718;2023-03-30T06:25:45;12.90;99.90
12708;DHT22;6418;50.824;4.718;2023-03-30T06:28:16;12.80;99.90
12708;DHT22;6418;50.824;4.718;2023-03-30T06:30:43;12.80;99.90
12708;DHT22;6418;50.824;4.718;2023-03-30T06:33:13;12.80;99.90
12708;DHT22;6418;50.824;4.718;2023-03-30T06:35:43;12.90;99.90
12708;DHT22;6418;50.824;4.718;2023-03-30T06:38:10;12.90;99.90
12708;DHT22;6418;50.824;4.718;2023-03-30T06:40:39;12.90;99.90
12708;DHT22;6418;50.824;4.718;2023-03-30T06:43:06;12.90;99.90
12708;DHT22;6418;50.824;4.718;2023-03-30T06:45:33;12.90;99.90
12708;DHT22;6418;50.824;4.718;2023-03-30T06:48:00;13.00;99.90
12708;DHT22;6418;50.824;4.718;2023-03-30T06:50:27;12.90;99.90
12708;DHT22;6418;50.824;4.718;2023-03-30T06:52:54;12.90;99.90
12708;DHT22;6418;50.824;4.718;2023-03-30T06:55:21;12.90;99.90
12708;DHT22;6418;50.824;4.718;2023-03-30T06:57:49;12.80;99.90
12708;DHT22;6418;50.824;4.718;2023-03-30T07:00:17;12.80;99.90
12708;DHT22;6418;50.824;4.718;2023-03-30T07:02:44;12.80;99.90
12708;DHT22;6418;50.824;4.718;2023-03-30T07:05:10;12.70;99.90
12708;DHT22;6418;50.824;4.718;2023-03-30T07:07:40;12.70;99.90
12708;DHT22;6418;50.824;4.718;2023-03-30T07:10:07;12.70;99.90
12708;DHT22;6418;50.824;4.718;2023-03-30T07:12:35;12.70;99.90
12708;DHT22;6418;50.824;4.718;2023-03-30T07:15:05;12.60;99.90
12708;DHT22;6418;50.824;4.718;2023-03-30T07:17:33;12.60;99.90
12708;DHT22;6418;50.824;4.718;2023-03-30T07:20:00;12.60;99.90
12708;DHT22;6418;50.824;4.718;2023-03-30T07:22:28;12.50;99.90
12708;DHT22;6418;50.824;4.718;2023-03-30T07:24:55;12.50;99.90
12708;DHT22;6418;50.824;4.718;2023-03-30T07:27:23;12.50;99.90
12708;DHT22;6418;50.824;4.718;2023-03-30T07:29:50;12.40;99.90
12708;DHT22;6418;50.824;4.718;2023-03-30T07:32:19;12.40;99.90
12708;DHT22;6418;50.824;4.718;2023-03-30T07:34:46;12.40;99.90
12708;DHT22;6418;50.824;4.718;2023-03-30T07:37:12;12.40;99.90
12708;DHT22;6418;50.824;4.718;2023-03-30T07:39:39;12.40;99.90
12708;DHT22;6418;50.824;4.718;2023-03-30T07:42:07;12.40;99.90
12708;DHT22;6418;50.824;4.718;2023-03-30T07:44:34;12.40;99.90
12708;DHT22;6418;50.824;4.718;2023-03-30T07:47:00;12.40;99.90
12708;DHT22;6418;50.824;4.718;2023-03-30T07:49:30;12.50;99.90
12708;DHT22;6418;50.824;4.718;2023-03-30T07:51:57;12.50;99.90
12708;DHT22;6418;50.824;4.718;2023-03-30T07:54:24;12.60;99.90
12708;DHT22;6418;50.824;4.718;2023-03-30T07:56:51;12.60;99.90
12708;DHT22;6418;50.824;4.718;2023-03-30T07:59:18;12.70;99.90
12708;DHT22;6418;50.824;4.718;2023-03-30T08:01:45;12.70;99.90
12708;DHT22;6418;50.824;4.718;2023-03-30T08:04:14;12.70;99.90
12708;DHT22;6418;50.824;4.718;2023-03-30T08:06:43;12.70;99.90
12708;DHT22;6418;50.824;4.718;2023-03-30T08:09:10;12.70;99.90
12708;DHT22;6418;50.824;4.718;2023-03-30T08:11:37;12.70;99.90
12708;DHT22;6418;50.824;4.718;2023-03-30T08:14:04;12.70;99.90
12708;DHT22;6418;50.824;4.718;2023-03-30T08:16:31;12.70;99.90
12708;DHT22;6418;50.824;4.718;2023-03-30T08:18:58;12.70;99.90
12708;DHT22;6418;50.824;4.718;2023-03-30T08:21:25;12.60;99.90
12708;DHT22;6418;50.824;4.718;2023-03-30T08:23:54;12.60;99.90
12708;DHT22;6418;50.824;4.718;2023-03-30T08:26:23;12.60;99.90
12708;DHT22;6418;50.824;4.718;2023-03-30T08:28:51;12.60;99.90
12708;DHT22;6418;50.824;4.718;2023-03-30T08:31:18;12.50;99.90
12708;DHT22;6418;50.824;4.718;2023-03-30T08:33:45;12.60;99.90
12708;DHT22;6418;50.824;4.718;2023-03-30T08:36:12;12.50;99.90
12708;DHT22;6418;50.824;4.718;2023-03-30T08:38:40;12.50;99.90
12708;DHT22;6418;50.824;4.718;2023-03-30T08:41:31;12.50;99.90
12708;DHT22;6418;50.824;4.718;2023-03-30T08:44:05;12.50;99.90
12708;DHT22;6418;50.824;4.718;2023-03-30T08:46:36;12.40;99.90
12708;DHT22;6418;50.824;4.718;2023-03-30T08:49:07;12.40;99.90
12708;DHT22;6418;50.824;4.718;2023-03-30T08:51:38;12.30;99.90
12708;DHT22;6418;50.824;4.718;2023-03-30T08:54:13;12.30;99.90
12708;DHT22;6418;50.824;4.718;2023-03-30T08:56:50;12.20;99.90
12708;DHT22;6418;50.824;4.718;2023-03-30T08:59:28;12.20;99.90
12708;DHT22;6418;50.824;4.718;2023-03-30T09:02:02;12.20;99.90
12708;DHT22;6418;50.824;4.718;2023-03-30T09:04:40;12.20;99.90
12708;DHT22;6418;50.824;4.718;2023-03-30T09:07:13;12.20;99.90
12708;DHT22;6418;50.824;4.718;2023-03-30T09:09:44;12.30;99.90
12708;DHT22;6418;50.824;4.718;2023-03-30T09:12:21;12.30;99.90
12708;DHT22;6418;50.824;4.718;2023-03-30T09:14:52;12.40;99.90
12708;DHT22;6418;50.824;4.718;2023-03-30T09:17:22;12.40;99.90
12708;DHT22;6418;50.824;4.718;2023-03-30T09:19:54;12.50;99.90
12708;DHT22;6418;50.824;4.718;2023-03-30T09:22:25;12.60;99.90
12708;DHT22;6418;50.824;4.718;2023-03-30T09:24:55;12.70;99.90
12708;DHT22;6418;50.824;4.718;2023-03-30T09:27:29;12.80;99.90
12708;DHT22;6418;50.824;4.718;2023-03-30T09:30:08;13.00;99.90
12708;DHT22;6418;50.824;4.718;2023-03-30T09:32:40;13.10;99.90
12708;DHT22;6418;50.824;4.718;2023-03-30T09:35:12;13.20;99.90
12708;DHT22;6418;50.824;4.718;2023-03-30T09:37:40;13.30;99.90
12708;DHT22;6418;50.824;4.718;2023-03-30T09:40:19;13.40;99.90
12708;DHT22;6418;50.824;4.718;2023-03-30T09:42:59;13.40;99.90
12708;DHT22;6418;50.824;4.718;2023-03-30T09:45:29;13.50;99.90
12708;DHT22;6418;50.824;4.718;2023-03-30T09:48:02;13.50;99.90
12708;DHT22;6418;50.824;4.718;2023-03-30T09:50:29;13.60;99.90
12708;DHT22;6418;50.824;4.718;2023-03-30T09:52:59;13.60;99.90
12708;DHT22;6418;50.824;4.718;2023-03-30T09:55:28;13.60;99.90
12708;DHT22;6418;50.824;4.718;2023-03-30T09:58:10;13.60;99.90
12708;DHT22;6418;50.824;4.718;2023-03-30T10:00:37;13.70;99.90
12708;DHT22;6418;50.824;4.718;2023-03-30T10:03:06;13.60;99.90
12708;DHT22;6418;50.824;4.718;2023-03-30T10:05:34;13.60;99.90
12708;DHT22;6418;50.824;4.718;2023-03-30T10:08:03;13.60;99.90
12708;DHT22;6418;50.824;4.718;2023-03-30T10:10:33;13.60;99.90
12708;DHT22;6418;50.824;4.718;2023-03-30T10:13:04;13.60;99.90
12708;DHT22;6418;50.824;4.718;2023-03-30T10:15:36;13.50;99.90
12708;DHT22;6418;50.824;4.718;2023-03-30T10:18:18;13.40;99.90
12708;DHT22;6418;50.824;4.718;2023-03-30T10:20:50;13.40;99.90
12708;DHT22;6418;50.824;4.718;2023-03-30T10:23:19;13.30;99.90
12708;DHT22;6418;50.824;4.718;2023-03-30T10:25:47;13.30;99.90
12708;DHT22;6418;50.824;4.718;2023-03-30T10:28:18;13.20;99.90
12708;DHT22;6418;50.824;4.718;2023-03-30T10:30:50;13.10;99.90
12708;DHT22;6418;50.824;4.718;2023-03-30T10:33:18;12.90;99.90
12708;DHT22;6418;50.824;4.718;2023-03-30T10:35:46;12.70;99.90
12708;DHT22;6418;50.824;4.718;2023-03-30T10:38:14;12.50;99.90
12708;DHT22;6418;50.824;4.718;2023-03-30T10:40:43;12.40;99.90
12708;DHT22;6418;50.824;4.718;2023-03-30T10:43:13;12.20;99.90
12708;DHT22;6418;50.824;4.718;2023-03-30T10:45:44;12.10;99.90
12708;DHT22;6418;50.824;4.718;2023-03-30T10:48:27;12.10;99.90
12708;DHT22;6418;50.824;4.718;2023-03-30T10:51:03;12.00;99.90
12708;DHT22;6418;50.824;4.718;2023-03-30T10:53:39;12.00;99.90
12708;DHT22;6418;50.824;4.718;2023-03-30T10:56:18;11.90;99.90
12708;DHT22;6418;50.824;4.718;2023-03-30T10:59:01;11.90;99.90
12708;DHT22;6418;50.824;4.718;2023-03-30T11:01:36;11.80;99.90
12708;DHT22;6418;50.824;4.718;2023-03-30T11:04:11;11.90;99.90
12708;DHT22;6418;50.824;4.718;2023-03-30T11:06:41;11.90;99.90
12708;DHT22;6418;50.824;4.718;2023-03-30T11:09:12;11.90;99.90
12708;DHT22;6418;50.824;4.718;2023-03-30T11:11:46;12.00;99.90
12708;DHT22;6418;50.824;4.718;2023-03-30T11:14:22;12.00;99.90
12708;DHT22;6418;50.824;4.718;2023-03-30T11:16:52;12.00;99.90
12708;DHT22;6418;50.824;4.718;2023-03-30T11:19:25;12.00;99.90
12708;DHT22;6418;50.824;4.718;2023-03-30T11:22:02;12.10;99.90
12708;DHT22;6418;50.824;4.718;2023-03-30T11:24:31;12.10;99.90
12708;DHT22;6418;50.824;4.718;2023-03-30T11:27:04;12.10;99.90
12708;DHT22;6418;50.824;4.718;2023-03-30T11:29:37;12.10;99.90
12708;DHT22;6418;50.824;4.718;2023-03-30T11:32:15;12.20;99.90
12708;DHT22;6418;50.824;4.718;2023-03-30T11:34:50;12.20;99.90
12708;DHT22;6418;50.824;4.718;2023-03-30T11:37:22;12.20;99.90
12708;DHT22;6418;50.824;4.718;2023-03-30T11:39:57;12.30;99.90
12708;DHT22;6418;50.824;4.718;2023-03-30T11:42:28;12.30;99.90
12708;DHT22;6418;50.824;4.718;2023-03-30T11:44:55;12.30;99.90
12708;DHT22;6418;50.824;4.718;2023-03-30T11:50:51;12.30;99.90
12708;DHT22;6418;50.824;4.718;2023-03-30T11:53:27;12.40;99.90
12708;DHT22;6418;50.824;4.718;2023-03-30T11:56:06;12.40;99.90
12708;DHT22;6418;50.824;4.718;2023-03-30T11:58:35;12.40;99.90
12708;DHT22;6418;50.824;4.718;2023-03-30T12:01:27;12.40;99.90
12708;DHT22;6418;50.824;4.718;2023-03-30T12:03:58;12.50;99.90
12708;DHT22;6418;50.824;4.718;2023-03-30T12:06:32;12.60;99.90
12708;DHT22;6418;50.824;4.718;2023-03-30T12:09:21;12.60;99.90
12708;DHT22;6418;50.824;4.718;2023-03-30T12:11:51;12.70;99.90
12708;DHT22;6418;50.824;4.718;2023-03-30T12:17:31;12.90;99.90
12708;DHT22;6418;50.824;4.718;2023-03-30T12:20:09;13.10;99.90
12708;DHT22;6418;50.824;4.718;2023-03-30T12:22:44;13.30;99.90
12708;DHT22;6418;50.824;4.718;2023-03-30T12:25:21;13.50;99.90
12708;DHT22;6418;50.824;4.718;2023-03-30T12:27:58;13.70;99.90
12708;DHT22;6418;50.824;4.718;2023-03-30T12:30:30;13.80;99.90
12708;DHT22;6418;50.824;4.718;2023-03-30T12:33:10;14.00;99.90
12708;DHT22;6418;50.824;4.718;2023-03-30T12:35:56;14.10;99.90
12708;DHT22;6418;50.824;4.718;2023-03-30T12:38:27;14.30;99.90
12708;DHT22;6418;50.824;4.718;2023-03-30T12:41:08;14.40;99.90
12708;DHT22;6418;50.824;4.718;2023-03-30T12:44:03;14.50;99.90
12708;DHT22;6418;50.824;4.718;2023-03-30T12:46:38;14.60;99.90
12708;DHT22;6418;50.824;4.718;2023-03-30T12:49:16;14.70;99.90
12708;DHT22;6418;50.824;4.718;2023-03-30T12:51:55;14.80;99.90
12708;DHT22;6418;50.824;4.718;2023-03-30T12:54:48;14.90;99.90
12708;DHT22;6418;50.824;4.718;2023-03-30T12:57:29;15.00;99.90
12708;DHT22;6418;50.824;4.718;2023-03-30T13:03:18;15.10;99.90
12708;DHT22;6418;50.824;4.718;2023-03-30T13:05:49;15.10;99.90
12708;DHT22;6418;50.824;4.718;2023-03-30T13:08:20;15.20;99.90
12708;DHT22;6418;50.824;4.718;2023-03-30T13:11:05;15.30;99.90
12708;DHT22;6418;50.824;4.718;2023-03-30T13:13:53;15.40;99.90
12708;DHT22;6418;50.824;4.718;2023-03-30T13:16:46;15.50;99.90
12708;DHT22;6418;50.824;4.718;2023-03-30T13:19:21;15.60;99.90
12708;DHT22;6418;50.824;4.718;2023-03-30T13:21:55;15.70;99.90
12708;DHT22;6418;50.824;4.718;2023-03-30T13:24:34;15.70;99.90
12708;DHT22;6418;50.824;4.718;2023-03-30T13:27:23;15.60;99.90
12708;DHT22;6418;50.824;4.718;2023-03-30T13:29:53;15.60;99.90
12708;DHT22;6418;50.824;4.718;2023-03-30T13:35:33;15.80;99.90
12708;DHT22;6418;50.824;4.718;2023-03-30T13:38:23;15.90;99.90
12708;DHT22;6418;50.824;4.718;2023-03-30T13:40:55;16.00;99.90
12708;DHT22;6418;50.824;4.718;2023-03-30T13:43:36;16.10;99.90
12708;DHT22;6418;50.824;4.718;2023-03-30T13:46:11;16.10;99.90
12708;DHT22;6418;50.824;4.718;2023-03-30T13:48:51;16.10;99.90
12708;DHT22;6418;50.824;4.718;2023-03-30T13:51:25;16.20;99.90
12708;DHT22;6418;50.824;4.718;2023-03-30T13:53:55;16.10;99.90
12708;DHT22;6418;50.824;4.718;2023-03-30T13:56:24;16.20;99.90
12708;DHT22;6418;50.824;4.718;2023-03-30T13:58:58;16.10;99.90
12708;DHT22;6418;50.824;4.718;2023-03-30T14:01:28;16.20;99.90
12708;DHT22;6418;50.824;4.718;2023-03-30T14:03:55;16.20;99.90
12708;DHT22;6418;50.824;4.718;2023-03-30T14:06:25;16.30;99.90
12708;DHT22;6418;50.824;4.718;2023-03-30T14:09:03;16.40;99.90
12708;DHT22;6418;50.824;4.718;2023-03-30T14:11:37;16.40;99.90
12708;DHT22;6418;50.824;4.718;2023-03-30T14:14:06;16.50;99.90
12708;DHT22;6418;50.824;4.718;2023-03-30T14:16:35;16.50;99.90
12708;DHT22;6418;50.824;4.718;2023-03-30T14:19:08;16.60;99.90
12708;DHT22;6418;50.824;4.718;2023-03-30T14:21:37;16.60;99.90
12708;DHT22;6418;50.824;4.718;2023-03-30T14:24:15;16.60;99.90
12708;DHT22;6418;50.824;4.718;2023-03-30T14:26:44;16.50;99.90
12708;DHT22;6418;50.824;4.718;2023-03-30T14:29:16;16.50;99.90
12708;DHT22;6418;50.824;4.718;2023-03-30T14:31:44;16.50;99.90
12708;DHT22;6418;50.824;4.718;2023-03-30T14:34:25;16.40;99.90
12708;DHT22;6418;50.824;4.718;2023-03-30T14:36:53;16.40;99.90
12708;DHT22;6418;50.824;4.718;2023-03-30T14:39:21;16.30;99.90
12708;DHT22;6418;50.824;4.718;2023-03-30T14:41:49;16.30;99.90
12708;DHT22;6418;50.824;4.718;2023-03-30T14:44:20;16.20;99.90
12708;DHT22;6418;50.824;4.718;2023-03-30T14:46:49;16.20;99.90
12708;DHT22;6418;50.824;4.718;2023-03-30T14:49:19;16.00;99.90
12708;DHT22;6418;50.824;4.718;2023-03-30T14:51:48;15.90;99.90
12708;DHT22;6418;50.824;4.718;2023-03-30T14:54:17;15.70;99.90
12708;DHT22;6418;50.824;4.718;2023-03-30T14:56:52;15.50;99.90
12708;DHT22;6418;50.824;4.718;2023-03-30T14:59:24;15.20;99.90
12708;DHT22;6418;50.824;4.718;2023-03-30T15:01:55;15.00;99.90
12708;DHT22;6418;50.824;4.718;2023-03-30T15:04:24;14.90;99.90
12708;DHT22;6418;50.824;4.718;2023-03-30T15:06:52;14.60;99.90
12708;DHT22;6418;50.824;4.718;2023-03-30T15:09:21;14.50;99.90
12708;DHT22;6418;50.824;4.718;2023-03-30T15:11:56;14.50;99.90
12708;DHT22;6418;50.824;4.718;2023-03-30T15:14:27;14.40;99.90
12708;DHT22;6418;50.824;4.718;2023-03-30T15:16:56;14.30;99.90
12708;DHT22;6418;50.824;4.718;2023-03-30T15:19:27;14.30;99.90
12708;DHT22;6418;50.824;4.718;2023-03-30T15:21:58;14.30;99.90
12708;DHT22;6418;50.824;4.718;2023-03-30T15:24:31;14.30;99.90
12708;DHT22;6418;50.824;4.718;2023-03-30T15:27:00;14.20;99.90
12708;DHT22;6418;50.824;4.718;2023-03-30T15:29:31;14.30;99.90
12708;DHT22;6418;50.824;4.718;2023-03-30T15:32:00;14.60;99.90
12708;DHT22;6418;50.824;4.718;2023-03-30T15:34:30;15.00;99.90
12708;DHT22;6418;50.824;4.718;2023-03-30T15:36:58;15.40;99.90
12708;DHT22;6418;50.824;4.718;2023-03-30T15:39:26;15.60;99.90
12708;DHT22;6418;50.824;4.718;2023-03-30T15:42:00;15.60;99.90
12708;DHT22;6418;50.824;4.718;2023-03-30T15:44:32;15.60;99.90
12708;DHT22;6418;50.824;4.718;2023-03-30T15:47:00;15.60;99.90
12708;DHT22;6418;50.824;4.718;2023-03-30T15:49:32;15.60;99.90
12708;DHT22;6418;50.824;4.718;2023-03-30T15:52:08;15.60;99.90
12708;DHT22;6418;50.824;4.718;2023-03-30T15:54:40;15.60;99.90
12708;DHT22;6418;50.824;4.718;2023-03-30T15:57:13;15.70;99.90
12708;DHT22;6418;50.824;4.718;2023-03-30T15:59:48;15.90;99.90
12708;DHT22;6418;50.824;4.718;2023-03-30T16:02:18;15.90;99.90
12708;DHT22;6418;50.824;4.718;2023-03-30T16:04:45;15.90;99.90
12708;DHT22;6418;50.824;4.718;2023-03-30T16:07:15;15.80;99.90
12708;DHT22;6418;50.824;4.718;2023-03-30T16:09:43;15.70;99.90
12708;DHT22;6418;50.824;4.718;2023-03-30T16:12:13;15.60;99.90
12708;DHT22;6418;50.824;4.718;2023-03-30T16:14:41;15.60;99.90
12708;DHT22;6418;50.824;4.718;2023-03-30T16:17:10;15.50;99.90
12708;DHT22;6418;50.824;4.718;2023-03-30T16:19:38;15.70;99.90
12708;DHT22;6418;50.824;4.718;2023-03-30T16:22:06;15.90;99.90
12708;DHT22;6418;50.824;4.718;2023-03-30T16:24:33;16.20;99.90